Terminal Aerodrome Forecast
Issued by NWS Houston/Galveston, TX

Home | Current Version | Previous Version | Text Only | Print | Product List | Glossary On
Versions: 1 2 3 4 5 6 7 8 9 10 11 12 13 14 15 16 17 18
000
FTUS44 KHGX 170523
TAFGLS
TAF
KGLS 170523Z 1706/1806 20008KT 6SM BR FEW004 BKN010 OVC020
     FM170800 32010KT 4SM BR OVC007
     FM171200 36007KT 2SM BR BKN007 OVC015
     FM171800 08008KT P6SM BKN025 BKN250
     FM180500 09008KT 4SM BR BKN015=

USA.gov is the U.S. government's official web portal to all federal, state and local government web resources and services.